sensor_id;sensor_type;location;lat;lon;timestamp;P1;durP1;ratioP1;P2;durP2;ratioP2
18695;SDS011;22617;43.690;27.956;2022-08-19T00:01:07;12.00;;;9.75;;
18695;SDS011;22617;43.690;27.956;2022-08-19T00:06:10;14.35;;;10.05;;
18695;SDS011;22617;43.690;27.956;2022-08-19T00:11:18;10.35;;;8.60;;
18695;SDS011;22617;43.690;27.956;2022-08-19T00:16:26;12.38;;;8.80;;
18695;SDS011;22617;43.690;27.956;2022-08-19T00:21:30;10.55;;;8.73;;
18695;SDS011;22617;43.690;27.956;2022-08-19T00:26:35;12.93;;;8.93;;
18695;SDS011;22617;43.690;27.956;2022-08-19T00:31:39;13.00;;;9.60;;
18695;SDS011;22617;43.690;27.956;2022-08-19T00:36:43;12.82;;;9.02;;
18695;SDS011;22617;43.690;27.956;2022-08-19T00:41:48;12.43;;;9.00;;
18695;SDS011;22617;43.690;27.956;2022-08-19T00:46:53;14.77;;;9.00;;
18695;SDS011;22617;43.690;27.956;2022-08-19T00:52:03;11.95;;;8.80;;
18695;SDS011;22617;43.690;27.956;2022-08-19T00:57:12;12.88;;;9.27;;
18695;SDS011;22617;43.690;27.956;2022-08-19T01:02:20;11.32;;;8.35;;
18695;SDS011;22617;43.690;27.956;2022-08-19T01:07:23;13.88;;;9.20;;
18695;SDS011;22617;43.690;27.956;2022-08-19T01:12:29;13.93;;;9.38;;
18695;SDS011;22617;43.690;27.956;2022-08-19T01:17:33;12.70;;;9.00;;
18695;SDS011;22617;43.690;27.956;2022-08-19T01:22:39;13.38;;;8.32;;
18695;SDS011;22617;43.690;27.956;2022-08-19T01:27:48;10.55;;;8.50;;
18695;SDS011;22617;43.690;27.956;2022-08-19T01:32:54;11.27;;;8.55;;
18695;SDS011;22617;43.690;27.956;2022-08-19T01:38:00;12.00;;;9.18;;
18695;SDS011;22617;43.690;27.956;2022-08-19T01:43:10;13.20;;;10.57;;
18695;SDS011;22617;43.690;27.956;2022-08-19T01:48:13;13.50;;;10.73;;
18695;SDS011;22617;43.690;27.956;2022-08-19T01:53:18;16.98;;;12.02;;
18695;SDS011;22617;43.690;27.956;2022-08-19T01:58:28;17.13;;;11.40;;
18695;SDS011;22617;43.690;27.956;2022-08-19T02:03:35;14.98;;;10.88;;
18695;SDS011;22617;43.690;27.956;2022-08-19T02:08:40;16.90;;;11.48;;
18695;SDS011;22617;43.690;27.956;2022-08-19T02:13:43;16.92;;;11.00;;
18695;SDS011;22617;43.690;27.956;2022-08-19T02:18:47;14.77;;;10.68;;
18695;SDS011;22617;43.690;27.956;2022-08-19T02:23:52;14.18;;;10.98;;
18695;SDS011;22617;43.690;27.956;2022-08-19T02:28:57;15.93;;;11.05;;
18695;SDS011;22617;43.690;27.956;2022-08-19T02:34:00;20.85;;;11.48;;
18695;SDS011;22617;43.690;27.956;2022-08-19T02:39:05;17.17;;;11.35;;
18695;SDS011;22617;43.690;27.956;2022-08-19T02:44:09;13.65;;;10.48;;
18695;SDS011;22617;43.690;27.956;2022-08-19T02:49:32;17.63;;;10.80;;
18695;SDS011;22617;43.690;27.956;2022-08-19T02:54:39;15.38;;;10.50;;
18695;SDS011;22617;43.690;27.956;2022-08-19T02:59:42;17.55;;;11.65;;
18695;SDS011;22617;43.690;27.956;2022-08-19T03:04:46;16.13;;;10.80;;
18695;SDS011;22617;43.690;27.956;2022-08-19T03:09:51;16.30;;;10.48;;
18695;SDS011;22617;43.690;27.956;2022-08-19T03:14:54;18.23;;;11.80;;
18695;SDS011;22617;43.690;27.956;2022-08-19T03:19:58;17.63;;;11.05;;
18695;SDS011;22617;43.690;27.956;2022-08-19T03:25:05;15.43;;;11.13;;
18695;SDS011;22617;43.690;27.956;2022-08-19T03:30:09;16.08;;;11.13;;
18695;SDS011;22617;43.690;27.956;2022-08-19T03:35:14;16.13;;;10.68;;
18695;SDS011;22617;43.690;27.956;2022-08-19T03:40:19;17.90;;;11.20;;
18695;SDS011;22617;43.690;27.956;2022-08-19T03:45:23;18.58;;;11.35;;
18695;SDS011;22617;43.690;27.956;2022-08-19T03:50:29;15.15;;;11.43;;
18695;SDS011;22617;43.690;27.956;2022-08-19T03:55:38;17.15;;;11.73;;
18695;SDS011;22617;43.690;27.956;2022-08-19T04:00:42;18.27;;;12.32;;
18695;SDS011;22617;43.690;27.956;2022-08-19T04:05:46;16.13;;;11.65;;
18695;SDS011;22617;43.690;27.956;2022-08-19T04:10:51;20.55;;;11.57;;
18695;SDS011;22617;43.690;27.956;2022-08-19T04:15:55;18.77;;;11.88;;
18695;SDS011;22617;43.690;27.956;2022-08-19T04:20:58;18.00;;;12.02;;
18695;SDS011;22617;43.690;27.956;2022-08-19T04:26:04;18.00;;;11.23;;
18695;SDS011;22617;43.690;27.956;2022-08-19T04:31:12;18.85;;;12.65;;
18695;SDS011;22617;43.690;27.956;2022-08-19T04:36:18;19.08;;;12.40;;
18695;SDS011;22617;43.690;27.956;2022-08-19T04:41:25;19.42;;;11.93;;
18695;SDS011;22617;43.690;27.956;2022-08-19T04:46:46;15.40;;;11.85;;
18695;SDS011;22617;43.690;27.956;2022-08-19T04:51:52;19.08;;;12.60;;
18695;SDS011;22617;43.690;27.956;2022-08-19T04:56:58;18.10;;;12.00;;
18695;SDS011;22617;43.690;27.956;2022-08-19T05:02:02;18.48;;;12.52;;
18695;SDS011;22617;43.690;27.956;2022-08-19T05:07:06;17.98;;;11.45;;
18695;SDS011;22617;43.690;27.956;2022-08-19T05:12:12;19.90;;;12.63;;
18695;SDS011;22617;43.690;27.956;2022-08-19T05:17:16;17.80;;;12.55;;
18695;SDS011;22617;43.690;27.956;2022-08-19T05:22:30;16.08;;;11.52;;
18695;SDS011;22617;43.690;27.956;2022-08-19T05:27:39;19.48;;;11.80;;
18695;SDS011;22617;43.690;27.956;2022-08-19T05:32:43;14.98;;;10.75;;
18695;SDS011;22617;43.690;27.956;2022-08-19T05:37:46;15.30;;;10.90;;
18695;SDS011;22617;43.690;27.956;2022-08-19T05:42:56;15.75;;;11.55;;
18695;SDS011;22617;43.690;27.956;2022-08-19T05:48:00;15.82;;;10.88;;
18695;SDS011;22617;43.690;27.956;2022-08-19T05:53:03;23.63;;;11.65;;
18695;SDS011;22617;43.690;27.956;2022-08-19T05:58:09;15.63;;;11.05;;
18695;SDS011;22617;43.690;27.956;2022-08-19T06:03:13;14.38;;;10.68;;
18695;SDS011;22617;43.690;27.956;2022-08-19T06:08:16;14.40;;;10.32;;
18695;SDS011;22617;43.690;27.956;2022-08-19T06:13:21;14.77;;;10.35;;
18695;SDS011;22617;43.690;27.956;2022-08-19T06:18:33;17.83;;;11.13;;
18695;SDS011;22617;43.690;27.956;2022-08-19T06:23:37;14.30;;;10.38;;
18695;SDS011;22617;43.690;27.956;2022-08-19T06:28:42;14.63;;;10.15;;
18695;SDS011;22617;43.690;27.956;2022-08-19T06:33:48;15.50;;;9.95;;
18695;SDS011;22617;43.690;27.956;2022-08-19T06:38:52;16.38;;;10.45;;
18695;SDS011;22617;43.690;27.956;2022-08-19T06:43:58;15.32;;;9.60;;
18695;SDS011;22617;43.690;27.956;2022-08-19T06:49:02;13.35;;;9.68;;
18695;SDS011;22617;43.690;27.956;2022-08-19T06:54:06;13.77;;;9.45;;
18695;SDS011;22617;43.690;27.956;2022-08-19T06:59:22;14.82;;;9.82;;
18695;SDS011;22617;43.690;27.956;2022-08-19T07:04:29;14.65;;;9.48;;
18695;SDS011;22617;43.690;27.956;2022-08-19T07:09:35;15.48;;;9.85;;
18695;SDS011;22617;43.690;27.956;2022-08-19T07:14:41;13.27;;;9.30;;
18695;SDS011;22617;43.690;27.956;2022-08-19T07:19:49;16.08;;;9.43;;
18695;SDS011;22617;43.690;27.956;2022-08-19T07:24:55;11.93;;;8.80;;
18695;SDS011;22617;43.690;27.956;2022-08-19T07:30:00;15.40;;;9.15;;
18695;SDS011;22617;43.690;27.956;2022-08-19T07:35:04;23.80;;;10.15;;
18695;SDS011;22617;43.690;27.956;2022-08-19T07:40:08;15.13;;;8.93;;
18695;SDS011;22617;43.690;27.956;2022-08-19T07:45:14;13.60;;;8.73;;
18695;SDS011;22617;43.690;27.956;2022-08-19T07:50:18;13.98;;;8.30;;
18695;SDS011;22617;43.690;27.956;2022-08-19T07:55:24;12.05;;;8.18;;
18695;SDS011;22617;43.690;27.956;2022-08-19T08:00:46;13.30;;;7.75;;
18695;SDS011;22617;43.690;27.956;2022-08-19T08:05:51;13.32;;;7.82;;
18695;SDS011;22617;43.690;27.956;2022-08-19T08:11:12;12.57;;;7.45;;
18695;SDS011;22617;43.690;27.956;2022-08-19T08:16:21;13.93;;;7.40;;
18695;SDS011;22617;43.690;27.956;2022-08-19T08:21:27;11.93;;;7.95;;
18695;SDS011;22617;43.690;27.956;2022-08-19T08:26:30;16.35;;;7.30;;
18695;SDS011;22617;43.690;27.956;2022-08-19T08:31:36;13.07;;;7.13;;
18695;SDS011;22617;43.690;27.956;2022-08-19T08:36:41;10.70;;;7.00;;
18695;SDS011;22617;43.690;27.956;2022-08-19T08:41:49;14.55;;;7.88;;
18695;SDS011;22617;43.690;27.956;2022-08-19T08:46:58;9.85;;;7.47;;
18695;SDS011;22617;43.690;27.956;2022-08-19T08:52:09;15.85;;;8.18;;
18695;SDS011;22617;43.690;27.956;2022-08-19T08:57:17;12.50;;;8.43;;
18695;SDS011;22617;43.690;27.956;2022-08-19T09:02:30;17.63;;;6.72;;
18695;SDS011;22617;43.690;27.956;2022-08-19T09:07:37;11.02;;;7.88;;
18695;SDS011;22617;43.690;27.956;2022-08-19T09:12:53;11.07;;;7.43;;
18695;SDS011;22617;43.690;27.956;2022-08-19T09:18:11;12.43;;;7.65;;
18695;SDS011;22617;43.690;27.956;2022-08-19T09:23:20;13.07;;;6.68;;
18695;SDS011;22617;43.690;27.956;2022-08-19T09:28:30;7.80;;;6.40;;
18695;SDS011;22617;43.690;27.956;2022-08-19T09:33:36;11.70;;;6.03;;
18695;SDS011;22617;43.690;27.956;2022-08-19T09:38:39;9.52;;;5.65;;
18695;SDS011;22617;43.690;27.956;2022-08-19T09:43:45;13.10;;;6.10;;
18695;SDS011;22617;43.690;27.956;2022-08-19T09:48:52;12.30;;;6.72;;
18695;SDS011;22617;43.690;27.956;2022-08-19T09:53:58;8.85;;;6.47;;
18695;SDS011;22617;43.690;27.956;2022-08-19T09:59:05;10.68;;;5.90;;
18695;SDS011;22617;43.690;27.956;2022-08-19T10:04:10;10.65;;;6.57;;
18695;SDS011;22617;43.690;27.956;2022-08-19T10:09:21;11.98;;;5.15;;
18695;SDS011;22617;43.690;27.956;2022-08-19T10:14:35;16.35;;;5.80;;
18695;SDS011;22617;43.690;27.956;2022-08-19T10:19:41;12.05;;;5.85;;
18695;SDS011;22617;43.690;27.956;2022-08-19T10:24:56;11.77;;;5.63;;
18695;SDS011;22617;43.690;27.956;2022-08-19T10:30:00;11.30;;;5.80;;
18695;SDS011;22617;43.690;27.956;2022-08-19T10:35:05;8.80;;;5.50;;
18695;SDS011;22617;43.690;27.956;2022-08-19T10:40:10;11.73;;;6.47;;
18695;SDS011;22617;43.690;27.956;2022-08-19T10:45:14;9.13;;;5.78;;
18695;SDS011;22617;43.690;27.956;2022-08-19T10:50:20;11.60;;;5.82;;
18695;SDS011;22617;43.690;27.956;2022-08-19T10:55:44;7.25;;;5.55;;
18695;SDS011;22617;43.690;27.956;2022-08-19T11:01:05;7.60;;;5.07;;
18695;SDS011;22617;43.690;27.956;2022-08-19T11:06:10;10.68;;;5.70;;
18695;SDS011;22617;43.690;27.956;2022-08-19T11:11:13;10.25;;;5.70;;
18695;SDS011;22617;43.690;27.956;2022-08-19T11:16:18;13.10;;;5.10;;
18695;SDS011;22617;43.690;27.956;2022-08-19T11:21:25;10.38;;;5.53;;
18695;SDS011;22617;43.690;27.956;2022-08-19T11:26:32;9.73;;;5.60;;
18695;SDS011;22617;43.690;27.956;2022-08-19T11:31:38;10.35;;;5.38;;
18695;SDS011;22617;43.690;27.956;2022-08-19T11:36:45;12.27;;;5.85;;
18695;SDS011;22617;43.690;27.956;2022-08-19T11:41:51;12.73;;;5.68;;
18695;SDS011;22617;43.690;27.956;2022-08-19T11:46:55;6.18;;;4.95;;
18695;SDS011;22617;43.690;27.956;2022-08-19T11:52:11;8.70;;;4.90;;
18695;SDS011;22617;43.690;27.956;2022-08-19T11:57:14;10.60;;;5.53;;
18695;SDS011;22617;43.690;27.956;2022-08-19T12:02:18;10.57;;;5.60;;
18695;SDS011;22617;43.690;27.956;2022-08-19T12:07:24;8.40;;;5.70;;
18695;SDS011;22617;43.690;27.956;2022-08-19T12:12:28;7.05;;;5.00;;
18695;SDS011;22617;43.690;27.956;2022-08-19T12:17:31;10.98;;;5.43;;
18695;SDS011;22617;43.690;27.956;2022-08-19T12:22:37;9.68;;;4.95;;
18695;SDS011;22617;43.690;27.956;2022-08-19T12:27:41;12.15;;;5.05;;
18695;SDS011;22617;43.690;27.956;2022-08-19T12:32:53;10.40;;;5.00;;
18695;SDS011;22617;43.690;27.956;2022-08-19T12:37:59;12.30;;;5.38;;
18695;SDS011;22617;43.690;27.956;2022-08-19T12:43:04;13.90;;;5.18;;
18695;SDS011;22617;43.690;27.956;2022-08-19T12:48:08;7.75;;;5.18;;
18695;SDS011;22617;43.690;27.956;2022-08-19T12:53:33;9.52;;;5.00;;
18695;SDS011;22617;43.690;27.956;2022-08-19T12:58:40;14.57;;;5.03;;
18695;SDS011;22617;43.690;27.956;2022-08-19T13:03:51;14.52;;;5.40;;
18695;SDS011;22617;43.690;27.956;2022-08-19T13:08:56;12.65;;;5.03;;
18695;SDS011;22617;43.690;27.956;2022-08-19T13:14:01;10.52;;;4.88;;
18695;SDS011;22617;43.690;27.956;2022-08-19T13:19:05;9.88;;;5.13;;
18695;SDS011;22617;43.690;27.956;2022-08-19T13:24:10;11.00;;;4.60;;
18695;SDS011;22617;43.690;27.956;2022-08-19T13:29:14;14.20;;;5.18;;
18695;SDS011;22617;43.690;27.956;2022-08-19T13:34:35;11.30;;;5.25;;
18695;SDS011;22617;43.690;27.956;2022-08-19T13:39:41;8.68;;;4.63;;
18695;SDS011;22617;43.690;27.956;2022-08-19T13:44:44;8.40;;;5.30;;
18695;SDS011;22617;43.690;27.956;2022-08-19T13:49:49;9.15;;;6.65;;
18695;SDS011;22617;43.690;27.956;2022-08-19T13:54:54;9.98;;;6.18;;
18695;SDS011;22617;43.690;27.956;2022-08-19T13:59:58;12.65;;;5.90;;
18695;SDS011;22617;43.690;27.956;2022-08-19T14:05:02;12.13;;;6.88;;
18695;SDS011;22617;43.690;27.956;2022-08-19T14:10:08;9.55;;;6.10;;
18695;SDS011;22617;43.690;27.956;2022-08-19T14:15:15;15.80;;;6.63;;
18695;SDS011;22617;43.690;27.956;2022-08-19T14:20:18;10.40;;;6.15;;
18695;SDS011;22617;43.690;27.956;2022-08-19T14:25:29;13.85;;;5.97;;
18695;SDS011;22617;43.690;27.956;2022-08-19T14:30:34;13.27;;;6.30;;
18695;SDS011;22617;43.690;27.956;2022-08-19T14:35:39;10.63;;;6.30;;
18695;SDS011;22617;43.690;27.956;2022-08-19T14:40:48;13.00;;;6.25;;
18695;SDS011;22617;43.690;27.956;2022-08-19T14:45:55;9.70;;;6.07;;
18695;SDS011;22617;43.690;27.956;2022-08-19T14:50:59;15.45;;;7.30;;
18695;SDS011;22617;43.690;27.956;2022-08-19T14:56:11;10.98;;;6.45;;
18695;SDS011;22617;43.690;27.956;2022-08-19T15:01:18;9.90;;;6.20;;
18695;SDS011;22617;43.690;27.956;2022-08-19T15:06:23;14.52;;;7.35;;
18695;SDS011;22617;43.690;27.956;2022-08-19T15:11:29;15.27;;;6.95;;
18695;SDS011;22617;43.690;27.956;2022-08-19T15:16:34;9.82;;;6.38;;
18695;SDS011;22617;43.690;27.956;2022-08-19T15:21:41;12.75;;;6.82;;
18695;SDS011;22617;43.690;27.956;2022-08-19T15:26:46;15.63;;;7.07;;
18695;SDS011;22617;43.690;27.956;2022-08-19T15:31:50;11.35;;;6.80;;
18695;SDS011;22617;43.690;27.956;2022-08-19T15:36:58;11.25;;;6.90;;
18695;SDS011;22617;43.690;27.956;2022-08-19T15:42:03;8.18;;;6.72;;
18695;SDS011;22617;43.690;27.956;2022-08-19T15:47:07;9.75;;;6.88;;
18695;SDS011;22617;43.690;27.956;2022-08-19T15:52:12;15.73;;;7.20;;
18695;SDS011;22617;43.690;27.956;2022-08-19T15:57:17;10.73;;;6.32;;
18695;SDS011;22617;43.690;27.956;2022-08-19T16:02:38;11.45;;;6.82;;
18695;SDS011;22617;43.690;27.956;2022-08-19T16:07:59;10.55;;;6.68;;
18695;SDS011;22617;43.690;27.956;2022-08-19T16:13:04;12.30;;;6.78;;
18695;SDS011;22617;43.690;27.956;2022-08-19T16:18:08;12.70;;;6.25;;
18695;SDS011;22617;43.690;27.956;2022-08-19T16:23:11;14.93;;;6.78;;
18695;SDS011;22617;43.690;27.956;2022-08-19T16:28:17;10.15;;;7.25;;
18695;SDS011;22617;43.690;27.956;2022-08-19T16:33:20;11.00;;;6.32;;
18695;SDS011;22617;43.690;27.956;2022-08-19T16:38:24;11.07;;;6.78;;
18695;SDS011;22617;43.690;27.956;2022-08-19T16:43:30;10.45;;;6.57;;
18695;SDS011;22617;43.690;27.956;2022-08-19T16:48:34;12.65;;;7.03;;
18695;SDS011;22617;43.690;27.956;2022-08-19T16:53:43;12.18;;;6.25;;
18695;SDS011;22617;43.690;27.956;2022-08-19T16:58:48;9.20;;;6.88;;
18695;SDS011;22617;43.690;27.956;2022-08-19T17:03:52;9.95;;;7.57;;
18695;SDS011;22617;43.690;27.956;2022-08-19T17:08:57;11.23;;;7.70;;
18695;SDS011;22617;43.690;27.956;2022-08-19T17:14:04;10.15;;;7.25;;
18695;SDS011;22617;43.690;27.956;2022-08-19T17:19:07;14.38;;;7.20;;
18695;SDS011;22617;43.690;27.956;2022-08-19T17:24:11;10.18;;;6.93;;
18695;SDS011;22617;43.690;27.956;2022-08-19T17:29:16;13.00;;;8.15;;
18695;SDS011;22617;43.690;27.956;2022-08-19T17:34:20;15.80;;;8.38;;
18695;SDS011;22617;43.690;27.956;2022-08-19T17:39:23;9.65;;;7.45;;
18695;SDS011;22617;43.690;27.956;2022-08-19T17:44:28;10.70;;;7.18;;
18695;SDS011;22617;43.690;27.956;2022-08-19T17:49:33;8.25;;;7.13;;
18695;SDS011;22617;43.690;27.956;2022-08-19T17:54:38;12.18;;;7.07;;
18695;SDS011;22617;43.690;27.956;2022-08-19T17:59:43;12.93;;;7.80;;
18695;SDS011;22617;43.690;27.956;2022-08-19T18:04:47;11.43;;;7.55;;
18695;SDS011;22617;43.690;27.956;2022-08-19T18:09:50;11.68;;;7.75;;
18695;SDS011;22617;43.690;27.956;2022-08-19T18:14:57;11.40;;;7.15;;
18695;SDS011;22617;43.690;27.956;2022-08-19T18:20:05;11.07;;;7.45;;
18695;SDS011;22617;43.690;27.956;2022-08-19T18:25:14;10.85;;;8.00;;
18695;SDS011;22617;43.690;27.956;2022-08-19T18:30:22;9.68;;;7.22;;
18695;SDS011;22617;43.690;27.956;2022-08-19T18:35:27;10.55;;;7.32;;
18695;SDS011;22617;43.690;27.956;2022-08-19T18:40:32;12.60;;;7.82;;
18695;SDS011;22617;43.690;27.956;2022-08-19T18:45:55;14.65;;;8.50;;
18695;SDS011;22617;43.690;27.956;2022-08-19T18:51:16;10.90;;;7.85;;
18695;SDS011;22617;43.690;27.956;2022-08-19T18:56:20;11.88;;;7.78;;
18695;SDS011;22617;43.690;27.956;2022-08-19T19:01:35;9.80;;;8.20;;
18695;SDS011;22617;43.690;27.956;2022-08-19T19:06:41;14.57;;;8.18;;
18695;SDS011;22617;43.690;27.956;2022-08-19T19:11:46;11.73;;;8.15;;
18695;SDS011;22617;43.690;27.956;2022-08-19T19:16:52;10.38;;;8.30;;
18695;SDS011;22617;43.690;27.956;2022-08-19T19:21:58;10.27;;;8.00;;
18695;SDS011;22617;43.690;27.956;2022-08-19T19:27:04;10.63;;;8.27;;
18695;SDS011;22617;43.690;27.956;2022-08-19T19:32:16;9.15;;;7.38;;
18695;SDS011;22617;43.690;27.956;2022-08-19T19:37:22;9.57;;;8.45;;
18695;SDS011;22617;43.690;27.956;2022-08-19T19:42:26;10.68;;;8.40;;
18695;SDS011;22617;43.690;27.956;2022-08-19T19:47:31;10.40;;;8.18;;
18695;SDS011;22617;43.690;27.956;2022-08-19T19:52:34;13.23;;;9.27;;
18695;SDS011;22617;43.690;27.956;2022-08-19T19:57:38;10.73;;;8.77;;
18695;SDS011;22617;43.690;27.956;2022-08-19T20:02:43;16.25;;;8.80;;
18695;SDS011;22617;43.690;27.956;2022-08-19T20:07:52;14.40;;;8.98;;
18695;SDS011;22617;43.690;27.956;2022-08-19T20:13:13;10.73;;;8.50;;
18695;SDS011;22617;43.690;27.956;2022-08-19T20:18:19;9.40;;;8.40;;
18695;SDS011;22617;43.690;27.956;2022-08-19T20:23:22;10.45;;;8.30;;
18695;SDS011;22617;43.690;27.956;2022-08-19T20:28:27;10.27;;;9.18;;
18695;SDS011;22617;43.690;27.956;2022-08-19T20:33:32;12.90;;;8.93;;
18695;SDS011;22617;43.690;27.956;2022-08-19T20:38:35;14.32;;;8.95;;
18695;SDS011;22617;43.690;27.956;2022-08-19T20:43:39;9.32;;;8.00;;
18695;SDS011;22617;43.690;27.956;2022-08-19T20:48:45;11.73;;;7.90;;
18695;SDS011;22617;43.690;27.956;2022-08-19T20:53:48;10.77;;;9.13;;
18695;SDS011;22617;43.690;27.956;2022-08-19T20:58:52;11.48;;;8.77;;
18695;SDS011;22617;43.690;27.956;2022-08-19T21:04:02;9.70;;;8.30;;
18695;SDS011;22617;43.690;27.956;2022-08-19T21:09:06;12.82;;;10.07;;
18695;SDS011;22617;43.690;27.956;2022-08-19T21:14:09;12.32;;;9.00;;
18695;SDS011;22617;43.690;27.956;2022-08-19T21:19:15;18.60;;;8.75;;
18695;SDS011;22617;43.690;27.956;2022-08-19T21:24:24;13.85;;;8.93;;
18695;SDS011;22617;43.690;27.956;2022-08-19T21:29:32;11.95;;;9.05;;
18695;SDS011;22617;43.690;27.956;2022-08-19T21:34:39;13.95;;;9.43;;
18695;SDS011;22617;43.690;27.956;2022-08-19T21:39:47;10.35;;;8.57;;
18695;SDS011;22617;43.690;27.956;2022-08-19T21:44:50;13.50;;;9.30;;
18695;SDS011;22617;43.690;27.956;2022-08-19T21:49:55;10.38;;;8.40;;
18695;SDS011;22617;43.690;27.956;2022-08-19T21:54:59;12.57;;;9.43;;
18695;SDS011;22617;43.690;27.956;2022-08-19T22:00:04;11.40;;;9.05;;
18695;SDS011;22617;43.690;27.956;2022-08-19T22:05:11;12.77;;;9.50;;
18695;SDS011;22617;43.690;27.956;2022-08-19T22:10:15;11.07;;;9.38;;
18695;SDS011;22617;43.690;27.956;2022-08-19T22:15:20;12.60;;;9.57;;
18695;SDS011;22617;43.690;27.956;2022-08-19T22:20:27;13.52;;;9.68;;
18695;SDS011;22617;43.690;27.956;2022-08-19T22:25:33;13.48;;;9.45;;
18695;SDS011;22617;43.690;27.956;2022-08-19T22:30:39;13.88;;;10.27;;
18695;SDS011;22617;43.690;27.956;2022-08-19T22:35:46;11.18;;;8.95;;
18695;SDS011;22617;43.690;27.956;2022-08-19T22:40:50;13.80;;;9.20;;
18695;SDS011;22617;43.690;27.956;2022-08-19T22:45:57;13.38;;;9.60;;
18695;SDS011;22617;43.690;27.956;2022-08-19T22:51:03;16.42;;;9.93;;
18695;SDS011;22617;43.690;27.956;2022-08-19T22:56:26;12.32;;;8.93;;
18695;SDS011;22617;43.690;27.956;2022-08-19T23:01:29;12.57;;;9.68;;
18695;SDS011;22617;43.690;27.956;2022-08-19T23:06:34;10.77;;;9.50;;
18695;SDS011;22617;43.690;27.956;2022-08-19T23:11:42;14.23;;;9.43;;
18695;SDS011;22617;43.690;27.956;2022-08-19T23:16:46;12.85;;;10.23;;
18695;SDS011;22617;43.690;27.956;2022-08-19T23:21:53;15.70;;;10.10;;
18695;SDS011;22617;43.690;27.956;2022-08-19T23:26:58;12.98;;;9.68;;
18695;SDS011;22617;43.690;27.956;2022-08-19T23:32:19;13.82;;;9.93;;
18695;SDS011;22617;43.690;27.956;2022-08-19T23:37:25;11.23;;;9.27;;
18695;SDS011;22617;43.690;27.956;2022-08-19T23:42:29;14.35;;;9.80;;
18695;SDS011;22617;43.690;27.956;2022-08-19T23:47:33;11.15;;;9.52;;
18695;SDS011;22617;43.690;27.956;2022-08-19T23:52:43;13.73;;;10.23;;
18695;SDS011;22617;43.690;27.956;2022-08-19T23:57:49;13.00;;;9.85;;
